createdAt,value
2022-10-02T00:02:15.207Z,15.50
2022-10-02T00:04:57.650Z,15.50
2022-10-02T00:07:57.256Z,15.50
2022-10-02T00:10:32.058Z,15.50
2022-10-02T00:13:08.193Z,15.50
2022-10-02T00:15:41.276Z,15.50
2022-10-02T00:18:13.797Z,15.50
2022-10-02T00:20:51.226Z,15.50
2022-10-02T00:23:26.840Z,15.50
2022-10-02T00:26:05.477Z,15.60
2022-10-02T00:28:48.197Z,15.60
2022-10-02T00:31:34.827Z,15.60
2022-10-02T00:34:21.758Z,15.60
2022-10-02T00:37:09.370Z,15.70
2022-10-02T00:40:03.782Z,15.70
2022-10-02T00:42:45.236Z,15.70
2022-10-02T00:45:36.168Z,15.80
2022-10-02T00:48:36.257Z,15.80
2022-10-02T00:51:22.382Z,15.80
2022-10-02T00:54:15.923Z,15.80
2022-10-02T00:57:05.065Z,15.90
2022-10-02T00:59:57.412Z,15.90
2022-10-02T01:02:36.868Z,15.90
2022-10-02T01:05:09.186Z,15.90
2022-10-02T01:07:40.065Z,15.90
2022-10-02T01:10:09.313Z,15.80
2022-10-02T01:12:38.081Z,15.80
2022-10-02T01:15:13.535Z,15.80
2022-10-02T01:17:46.444Z,15.80
2022-10-02T01:20:45.065Z,15.70
2022-10-02T01:23:32.594Z,15.70
2022-10-02T01:26:05.517Z,15.70
2022-10-02T01:28:35.213Z,15.70
2022-10-02T01:31:10.323Z,15.60
2022-10-02T01:33:42.339Z,15.60
2022-10-02T01:36:15.058Z,15.60
2022-10-02T01:38:44.423Z,15.60
2022-10-02T01:41:14.392Z,15.50
2022-10-02T01:43:49.737Z,15.50
2022-10-02T01:46:41.225Z,15.50
2022-10-02T01:49:23.696Z,15.40
2022-10-02T01:51:53.792Z,15.40
2022-10-02T01:54:44.003Z,15.40
2022-10-02T01:57:35.104Z,15.40
2022-10-02T02:00:08.389Z,15.40
2022-10-02T02:02:59.324Z,15.50
2022-10-02T02:05:32.097Z,15.40
2022-10-02T02:08:11.382Z,15.40
2022-10-02T02:10:54.463Z,15.50
2022-10-02T02:13:36.881Z,15.40
2022-10-02T02:16:23.138Z,15.40
2022-10-02T02:19:10.971Z,15.40
2022-10-02T02:21:41.670Z,15.40
2022-10-02T02:24:20.988Z,15.40
2022-10-02T02:26:54.595Z,15.40
2022-10-02T02:29:23.771Z,15.40
2022-10-02T02:32:00.031Z,15.40
2022-10-02T02:34:32.954Z,15.40
2022-10-02T02:37:07.167Z,15.40
2022-10-02T02:39:46.128Z,15.40
2022-10-02T02:42:18.165Z,15.40
2022-10-02T02:45:12.788Z,15.40
2022-10-02T02:48:02.127Z,15.40
2022-10-02T02:50:46.285Z,15.40
2022-10-02T02:53:35.502Z,15.40
2022-10-02T02:56:07.836Z,15.40
2022-10-02T02:58:48.826Z,15.30
2022-10-02T03:01:16.330Z,15.30
2022-10-02T03:03:43.699Z,15.40
2022-10-02T03:06:41.436Z,15.40
2022-10-02T03:09:14.834Z,15.40
2022-10-02T03:11:46.832Z,15.30
2022-10-02T03:14:38.546Z,15.30
2022-10-02T03:17:35.715Z,15.30
2022-10-02T03:20:24.800Z,15.30
2022-10-02T03:23:28.843Z,15.30
2022-10-02T03:26:08.404Z,15.30
2022-10-02T03:28:55.885Z,15.30
2022-10-02T03:31:27.495Z,15.30
2022-10-02T03:33:57.575Z,15.30
2022-10-02T03:36:25.595Z,15.30
2022-10-02T03:39:23.805Z,15.30
2022-10-02T03:41:48.963Z,15.20
2022-10-02T03:44:16.323Z,15.30
2022-10-02T03:46:45.951Z,15.20
2022-10-02T03:49:13.382Z,15.20
2022-10-02T03:51:40.894Z,15.20
2022-10-02T03:54:25.489Z,15.20
2022-10-02T03:57:03.990Z,15.20
2022-10-02T03:59:48.232Z,15.20
2022-10-02T04:02:29.890Z,15.30
2022-10-02T04:05:12.681Z,15.20
2022-10-02T04:07:43.266Z,15.30
2022-10-02T04:10:13.677Z,15.30
2022-10-02T04:12:55.312Z,15.30
2022-10-02T04:15:50.438Z,15.30
2022-10-02T04:18:40.525Z,15.30
2022-10-02T04:21:10.783Z,15.30
2022-10-02T04:23:48.144Z,15.40
2022-10-02T04:26:30.690Z,15.30
2022-10-02T04:29:20.812Z,15.30
2022-10-02T04:31:54.354Z,15.30
2022-10-02T04:34:21.673Z,15.30
2022-10-02T04:37:12.001Z,15.30
2022-10-02T04:40:01.500Z,15.30
2022-10-02T04:42:49.753Z,15.30
2022-10-02T04:45:32.789Z,15.30
2022-10-02T04:48:05.956Z,15.30
2022-10-02T04:50:36.217Z,15.30
2022-10-02T04:53:39.703Z,15.30
2022-10-02T04:56:27.722Z,15.30
2022-10-02T04:59:19.832Z,15.30
2022-10-02T05:01:47.118Z,15.30
2022-10-02T05:04:26.354Z,15.30
2022-10-02T05:07:32.092Z,15.30
2022-10-02T05:10:15.033Z,15.30
2022-10-02T05:13:04.924Z,15.30
2022-10-02T05:15:49.950Z,15.30
2022-10-02T05:18:20.032Z,15.30
2022-10-02T05:21:19.172Z,15.30
2022-10-02T05:23:55.586Z,15.40
2022-10-02T05:26:43.942Z,15.40
2022-10-02T05:29:16.403Z,15.40
2022-10-02T05:31:57.492Z,15.40
2022-10-02T05:34:27.684Z,15.40
2022-10-02T05:37:12.822Z,15.40
2022-10-02T05:40:04.276Z,15.40
2022-10-02T05:42:43.620Z,15.40
2022-10-02T05:45:29.271Z,15.40
2022-10-02T05:48:08.398Z,15.30
2022-10-02T05:50:38.595Z,15.40
2022-10-02T05:53:33.493Z,15.30
2022-10-02T05:56:10.237Z,15.30
2022-10-02T05:58:59.102Z,15.30
2022-10-02T06:01:33.027Z,15.30
2022-10-02T06:04:06.179Z,15.40
2022-10-02T06:06:53.696Z,15.40
2022-10-02T06:09:50.403Z,15.30
2022-10-02T06:12:17.638Z,15.40
2022-10-02T06:15:07.376Z,15.40
2022-10-02T06:17:44.549Z,15.30
2022-10-02T06:20:34.557Z,15.40
2022-10-02T06:23:16.132Z,15.30
2022-10-02T06:25:46.037Z,15.30
2022-10-02T06:28:21.863Z,15.30
2022-10-02T06:31:01.000Z,15.30
2022-10-02T06:33:32.284Z,15.30
2022-10-02T06:36:02.523Z,15.30
2022-10-02T06:38:52.886Z,15.30
2022-10-02T06:41:46.251Z,15.40
2022-10-02T06:44:27.432Z,15.40
2022-10-02T06:47:13.053Z,15.40
2022-10-02T06:49:49.011Z,15.40
2022-10-02T06:52:27.211Z,15.40
2022-10-02T06:55:06.001Z,15.40
2022-10-02T06:58:07.319Z,15.40
2022-10-02T07:00:47.557Z,15.40
2022-10-02T07:03:29.520Z,15.40
2022-10-02T07:06:15.194Z,15.50
2022-10-02T07:09:04.608Z,15.50
2022-10-02T07:11:40.938Z,15.50
2022-10-02T07:14:30.337Z,15.50
2022-10-02T07:17:27.644Z,15.60
2022-10-02T07:20:25.320Z,15.60
2022-10-02T07:23:06.802Z,15.60
2022-10-02T07:25:44.211Z,15.60
2022-10-02T07:28:40.421Z,15.70
2022-10-02T07:31:20.512Z,15.70
2022-10-02T07:34:00.031Z,15.70
2022-10-02T07:36:54.212Z,15.80
2022-10-02T07:39:39.624Z,15.70
2022-10-02T07:42:40.237Z,15.80
2022-10-02T07:45:16.751Z,15.70
2022-10-02T07:48:17.257Z,15.70
2022-10-02T07:51:47.127Z,15.70
2022-10-02T07:54:26.143Z,15.70
2022-10-02T07:56:57.111Z,15.70
2022-10-02T07:59:24.888Z,15.70
2022-10-02T08:01:56.104Z,15.70
2022-10-02T08:04:37.325Z,15.70
2022-10-02T08:07:06.508Z,15.80
2022-10-02T08:09:47.278Z,15.80
2022-10-02T08:12:28.879Z,15.80
2022-10-02T08:14:58.638Z,15.80
2022-10-02T08:17:32.705Z,15.80
2022-10-02T08:20:30.121Z,15.90
2022-10-02T08:23:24.764Z,15.90
2022-10-02T08:26:06.634Z,15.90
2022-10-02T08:28:46.500Z,15.90
2022-10-02T08:31:17.104Z,15.90
2022-10-02T08:33:44.551Z,15.90
2022-10-02T08:36:44.510Z,15.90
2022-10-02T08:39:50.664Z,15.90
2022-10-02T08:42:43.065Z,15.90
2022-10-02T08:45:43.791Z,15.90
2022-10-02T08:48:56.282Z,15.80
2022-10-02T08:51:57.669Z,15.80
2022-10-02T08:54:42.709Z,15.80
2022-10-02T08:57:37.828Z,15.80
2022-10-02T09:00:30.327Z,15.70
2022-10-02T09:03:27.753Z,15.70
2022-10-02T09:06:13.744Z,15.70
2022-10-02T09:09:07.341Z,15.70
2022-10-02T09:11:58.011Z,15.70
2022-10-02T09:14:45.775Z,15.70
2022-10-02T09:17:34.693Z,15.60
2022-10-02T09:20:04.713Z,15.60
2022-10-02T09:22:45.707Z,15.60
2022-10-02T09:25:43.469Z,15.60
2022-10-02T09:28:23.141Z,15.60
2022-10-02T09:31:23.887Z,15.60
2022-10-02T09:34:15.857Z,15.50
2022-10-02T09:37:02.254Z,15.50
2022-10-02T09:39:44.211Z,15.60
2022-10-02T09:42:20.905Z,15.50
2022-10-02T09:45:01.712Z,15.50
2022-10-02T09:48:08.667Z,15.50
2022-10-02T09:51:04.671Z,15.50
2022-10-02T09:53:56.100Z,15.50
2022-10-02T09:56:45.591Z,15.50
2022-10-02T09:59:34.630Z,15.60
2022-10-02T10:02:24.811Z,15.50
2022-10-02T10:05:17.079Z,15.50
2022-10-02T10:08:15.977Z,15.60
2022-10-02T10:11:16.137Z,15.60
2022-10-02T10:14:24.611Z,15.60
2022-10-02T10:17:13.522Z,15.60
2022-10-02T10:20:05.340Z,15.60
2022-10-02T10:23:09.607Z,15.60
2022-10-02T10:25:50.419Z,15.60
2022-10-02T10:28:51.288Z,15.70
2022-10-02T10:31:32.693Z,15.70
2022-10-02T10:34:02.747Z,15.70
2022-10-02T10:37:06.890Z,15.70
2022-10-02T10:39:55.482Z,15.70
2022-10-02T10:43:06.479Z,15.70
2022-10-02T10:45:54.284Z,15.70
2022-10-02T10:48:49.303Z,15.80
2022-10-02T10:51:30.632Z,15.70
2022-10-02T10:54:27.908Z,15.80
2022-10-02T10:57:22.778Z,15.80
2022-10-02T11:00:12.126Z,15.80
2022-10-02T11:02:55.133Z,15.80
2022-10-02T11:05:46.304Z,15.80
2022-10-02T11:08:31.823Z,15.90
2022-10-02T11:11:01.935Z,15.90
2022-10-02T11:13:33.153Z,15.90
2022-10-02T11:16:28.050Z,16.00
2022-10-02T11:19:08.130Z,16.00
2022-10-02T11:21:55.225Z,16.00
2022-10-02T11:24:31.521Z,16.00
2022-10-02T11:27:40.042Z,16.10
2022-10-02T11:30:32.487Z,16.10
2022-10-02T11:33:02.677Z,16.20
2022-10-02T11:36:02.421Z,16.10
2022-10-02T11:38:54.089Z,16.10
2022-10-02T11:41:28.610Z,16.10
2022-10-02T11:44:28.214Z,16.20
2022-10-02T11:47:20.481Z,16.10
2022-10-02T11:50:29.203Z,16.10
2022-10-02T11:53:32.103Z,16.20
2022-10-02T11:56:36.095Z,16.10
2022-10-02T11:59:23.117Z,16.10
2022-10-02T12:02:07.023Z,16.10
2022-10-02T12:04:34.327Z,16.10
2022-10-02T12:07:33.961Z,16.10
2022-10-02T12:10:24.036Z,16.10
2022-10-02T12:13:02.022Z,16.10
2022-10-02T12:15:53.628Z,16.10
2022-10-02T12:18:36.386Z,16.10
2022-10-02T12:21:40.428Z,16.10
2022-10-02T12:24:43.576Z,16.10
2022-10-02T12:27:48.784Z,16.10
2022-10-02T12:30:20.364Z,16.10
2022-10-02T12:33:01.810Z,16.10
2022-10-02T12:35:41.215Z,16.10
2022-10-02T12:38:19.827Z,16.10
2022-10-02T12:41:17.547Z,16.10
2022-10-02T12:43:56.772Z,16.10
2022-10-02T12:46:53.185Z,16.10
2022-10-02T12:49:50.694Z,16.10
2022-10-02T12:52:50.654Z,16.10
2022-10-02T12:55:55.273Z,16.10
2022-10-02T12:58:36.580Z,16.20
2022-10-02T13:01:41.668Z,16.20
2022-10-02T13:04:23.123Z,16.20
2022-10-02T13:07:32.154Z,16.20
2022-10-02T13:10:19.139Z,16.20
2022-10-02T13:13:12.574Z,16.20
2022-10-02T13:16:14.064Z,16.30
2022-10-02T13:19:03.481Z,16.30
2022-10-02T13:21:43.837Z,16.30
2022-10-02T13:24:58.047Z,16.40
2022-10-02T13:27:49.638Z,16.40
2022-10-02T13:30:22.020Z,16.40
2022-10-02T13:33:06.032Z,16.40
2022-10-02T13:35:44.893Z,16.40
2022-10-02T13:38:30.736Z,16.50
2022-10-02T13:41:15.917Z,16.50
2022-10-02T13:44:04.354Z,16.50
2022-10-02T13:46:53.552Z,16.50
2022-10-02T13:49:32.658Z,16.50
2022-10-02T13:52:02.667Z,16.50
2022-10-02T13:55:04.806Z,16.50
2022-10-02T13:57:53.345Z,16.50
2022-10-02T14:00:49.031Z,16.50
2022-10-02T14:03:19.110Z,16.50
2022-10-02T14:05:58.257Z,16.50
2022-10-02T14:08:36.962Z,16.50
2022-10-02T14:11:16.893Z,16.50
2022-10-02T14:13:52.857Z,16.60
2022-10-02T14:16:47.964Z,16.60
2022-10-02T14:19:53.678Z,16.60
2022-10-02T14:23:00.177Z,16.60
2022-10-02T14:25:51.143Z,16.60
2022-10-02T14:29:03.879Z,16.60
2022-10-02T14:32:02.727Z,16.60
2022-10-02T14:35:24.104Z,16.60
2022-10-02T14:38:06.141Z,16.60
2022-10-02T14:40:44.499Z,16.70
2022-10-02T14:43:37.144Z,16.70
2022-10-02T14:46:33.602Z,16.70
2022-10-02T14:49:18.032Z,16.70
2022-10-02T14:52:03.869Z,16.70
2022-10-02T14:54:51.082Z,16.70
2022-10-02T14:58:08.944Z,16.70
2022-10-02T15:01:19.561Z,16.60
2022-10-02T15:04:24.245Z,16.60
2022-10-02T15:07:18.198Z,16.60
2022-10-02T15:10:00.149Z,16.60
2022-10-02T15:13:01.660Z,16.50
2022-10-02T15:15:35.436Z,16.50
2022-10-02T15:18:32.719Z,16.50
2022-10-02T15:21:26.863Z,16.40
2022-10-02T15:23:59.738Z,16.40
2022-10-02T15:26:49.885Z,16.30
2022-10-02T15:29:38.379Z,16.30
2022-10-02T15:32:27.220Z,16.30
2022-10-02T15:35:25.196Z,16.20
2022-10-02T15:38:11.065Z,16.20
2022-10-02T15:40:53.651Z,16.20
2022-10-02T15:43:50.842Z,16.10
2022-10-02T15:46:37.453Z,16.10
2022-10-02T15:49:36.698Z,16.10
2022-10-02T15:52:42.703Z,16.10
2022-10-02T15:55:38.827Z,16.00
2022-10-02T15:58:38.948Z,16.00
2022-10-02T16:01:18.677Z,15.90
2022-10-02T16:03:52.451Z,15.90
2022-10-02T16:06:41.556Z,15.80
2022-10-02T16:09:30.706Z,15.80
2022-10-02T16:12:22.291Z,15.80
2022-10-02T16:15:07.766Z,15.80
2022-10-02T16:18:08.222Z,15.70
2022-10-02T16:21:13.216Z,15.70
2022-10-02T16:23:56.637Z,15.70
2022-10-02T16:26:51.008Z,15.60
2022-10-02T16:30:05.428Z,15.60
2022-10-02T16:32:54.238Z,15.60
2022-10-02T16:35:44.094Z,15.60
2022-10-02T16:38:30.854Z,15.60
2022-10-02T16:41:15.885Z,15.50
2022-10-02T16:43:54.312Z,15.50
2022-10-02T16:46:24.837Z,15.60
2022-10-02T16:49:16.898Z,15.50
2022-10-02T16:51:56.516Z,15.50
2022-10-02T16:54:37.738Z,15.50
2022-10-02T16:57:22.333Z,15.50
2022-10-02T17:00:10.545Z,15.40
2022-10-02T17:02:37.826Z,15.40
2022-10-02T17:05:18.086Z,15.40
2022-10-02T17:08:03.621Z,15.40
2022-10-02T17:10:39.871Z,15.40
2022-10-02T17:13:12.126Z,15.40
2022-10-02T17:16:07.494Z,15.40
2022-10-02T17:18:43.484Z,15.40
2022-10-02T17:21:22.845Z,15.40
2022-10-02T17:24:04.177Z,15.40
2022-10-02T17:26:51.502Z,15.40
2022-10-02T17:29:38.454Z,15.40
2022-10-02T17:32:09.497Z,15.40
2022-10-02T17:34:49.254Z,15.40
2022-10-02T17:37:16.436Z,15.40
2022-10-02T17:39:55.415Z,15.40
2022-10-02T17:42:43.718Z,15.40
2022-10-02T17:45:32.586Z,15.40
2022-10-02T17:48:15.512Z,15.40
2022-10-02T17:51:14.173Z,15.40
2022-10-02T17:54:37.205Z,15.40
2022-10-02T17:57:23.375Z,15.40
2022-10-02T18:00:03.545Z,15.40
2022-10-02T18:02:40.054Z,15.40
2022-10-02T18:05:22.356Z,15.30
2022-10-02T18:08:16.924Z,15.40
2022-10-02T18:11:20.785Z,15.40
2022-10-02T18:14:21.556Z,15.40
2022-10-02T18:17:04.166Z,15.40
2022-10-02T18:19:50.356Z,15.30
2022-10-02T18:22:38.959Z,15.30
2022-10-02T18:25:29.720Z,15.30
2022-10-02T18:28:12.372Z,15.20
2022-10-02T18:30:47.298Z,15.20
2022-10-02T18:33:35.883Z,15.20
2022-10-02T18:36:21.639Z,15.20
2022-10-02T18:39:08.947Z,15.20
2022-10-02T18:41:48.972Z,15.10
2022-10-02T18:44:34.458Z,15.10
2022-10-02T18:47:20.535Z,15.10
2022-10-02T18:49:54.767Z,15.10
2022-10-02T18:52:45.568Z,15.10
2022-10-02T18:55:34.605Z,15.10
2022-10-02T18:58:35.072Z,15.10
2022-10-02T19:01:39.855Z,15.10
2022-10-02T19:04:24.422Z,15.10
2022-10-02T19:07:34.315Z,15.00
2022-10-02T19:10:40.206Z,15.00
2022-10-02T19:13:17.543Z,15.00
2022-10-02T19:15:49.308Z,15.10
2022-10-02T19:18:20.997Z,15.10
2022-10-02T19:20:50.949Z,15.10
2022-10-02T19:23:34.086Z,15.10
2022-10-02T19:26:06.080Z,15.20
2022-10-02T19:28:51.167Z,15.10
2022-10-02T19:31:31.425Z,15.10
2022-10-02T19:34:24.839Z,15.10
2022-10-02T19:36:57.176Z,15.10
2022-10-02T19:39:27.273Z,15.10
2022-10-02T19:41:57.795Z,15.20
2022-10-02T19:44:44.470Z,15.20
2022-10-02T19:47:19.383Z,15.10
2022-10-02T19:49:56.702Z,15.20
2022-10-02T19:52:48.447Z,15.10
2022-10-02T19:55:28.194Z,15.20
2022-10-02T19:58:06.372Z,15.10
2022-10-02T20:00:38.698Z,15.20
2022-10-02T20:03:12.530Z,15.20
2022-10-02T20:05:44.945Z,15.20
2022-10-02T20:08:19.128Z,15.20
2022-10-02T20:11:39.998Z,15.10
2022-10-02T20:14:20.841Z,15.20
2022-10-02T20:17:07.248Z,15.20
2022-10-02T20:20:12.275Z,15.20
2022-10-02T20:22:55.881Z,15.20
2022-10-02T20:25:37.610Z,15.20
2022-10-02T20:28:23.890Z,15.20
2022-10-02T20:30:58.503Z,15.20
2022-10-02T20:33:35.270Z,15.20
2022-10-02T20:36:14.196Z,15.20
2022-10-02T20:38:53.406Z,15.20
2022-10-02T20:41:36.177Z,15.20
2022-10-02T20:44:06.314Z,15.10
2022-10-02T20:47:30.913Z,15.10
2022-10-02T20:50:32.711Z,15.20
2022-10-02T20:53:41.644Z,15.10
2022-10-02T20:56:41.991Z,15.10
2022-10-02T20:59:47.990Z,15.20
2022-10-02T21:02:56.076Z,15.20
2022-10-02T21:05:31.092Z,15.10
2022-10-02T21:08:09.663Z,15.20
2022-10-02T21:11:17.097Z,15.20
2022-10-02T21:14:02.945Z,15.10
2022-10-02T21:16:50.354Z,15.20
2022-10-02T21:19:32.580Z,15.20
2022-10-02T21:22:05.472Z,15.20
2022-10-02T21:25:09.348Z,15.30
2022-10-02T21:28:17.449Z,15.20
2022-10-02T21:30:59.128Z,15.30
2022-10-02T21:33:35.533Z,15.30
2022-10-02T21:36:09.693Z,15.40
2022-10-02T21:39:00.608Z,15.40
2022-10-02T21:42:07.322Z,15.30
2022-10-02T21:44:54.521Z,15.40
2022-10-02T21:47:39.382Z,15.40
2022-10-02T21:50:31.750Z,15.30
2022-10-02T21:53:25.673Z,15.30
2022-10-02T21:56:20.052Z,15.40
2022-10-02T21:59:25.049Z,15.40
2022-10-02T22:02:09.130Z,15.40
2022-10-02T22:04:36.762Z,15.40
2022-10-02T22:07:16.359Z,15.40
2022-10-02T22:09:58.857Z,15.30
2022-10-02T22:12:31.298Z,15.40
2022-10-02T22:15:07.537Z,15.40
2022-10-02T22:17:56.094Z,15.40
2022-10-02T22:21:00.694Z,15.40
2022-10-02T22:23:51.344Z,15.40
2022-10-02T22:26:42.865Z,15.40
2022-10-02T22:29:20.285Z,15.40
2022-10-02T22:32:43.062Z,15.40
2022-10-02T22:35:29.016Z,15.30
2022-10-02T22:38:14.061Z,15.30
2022-10-02T22:41:10.397Z,15.30
2022-10-02T22:43:40.352Z,15.30
2022-10-02T22:46:34.865Z,15.20
2022-10-02T22:49:18.244Z,15.20
2022-10-02T22:52:13.676Z,15.10
2022-10-02T22:54:56.119Z,15.20
2022-10-02T22:57:31.223Z,15.10
2022-10-02T23:00:05.101Z,15.10
2022-10-02T23:02:34.844Z,15.10
2022-10-02T23:05:11.191Z,15.10
2022-10-02T23:07:53.185Z,15.00
2022-10-02T23:10:47.853Z,15.00
2022-10-02T23:13:27.528Z,15.00
2022-10-02T23:15:58.122Z,15.00
2022-10-02T23:18:47.912Z,15.00
2022-10-02T23:21:45.651Z,14.90
2022-10-02T23:24:34.702Z,14.90
2022-10-02T23:27:18.811Z,14.90
2022-10-02T23:30:25.143Z,14.90
2022-10-02T23:33:17.126Z,14.90
2022-10-02T23:35:44.251Z,14.80
2022-10-02T23:38:20.248Z,14.90
2022-10-02T23:41:24.668Z,14.90
2022-10-02T23:44:09.901Z,14.80
2022-10-02T23:46:48.547Z,14.80
2022-10-02T23:49:41.362Z,14.80
2022-10-02T23:52:11.131Z,14.80
2022-10-02T23:55:15.299Z,14.80
2022-10-02T23:58:13.380Z,14.80
